< Cyclone 198414 1984 Season Cyclone 198416 >
Cyclone 198415 (INGRID)
General InformationTrack Information on Google MapsList of All Images || ResourceGoogle EarthGE AnimationAtom FeedGeoJSON
Detalied Best Track (Time Zone = UTC)
Year Month Day Hour Lat. Long. Pressure (hPa) Wind (kt) Class Image Chart
1984 2 20 09 -17.3 148.4 1001 0 0 Image --
1984 2 20 12 -17.3 147.6 1001 0 0 Image --
1984 2 20 15 -17.3 147.8 1001 0 0 Image --
1984 2 20 18 -17.2 148.0 1001 0 0 Image --
1984 2 20 21 -17.0 148.3 1001 0 0 Image --
1984 2 21 00 -16.9 148.8 1000 0 0 Image --
1984 2 21 06 -16.8 149.8 998 0 0 Image --
1984 2 21 12 -16.9 150.5 995 0 0 Image --
1984 2 21 18 -17.0 150.8 995 0 0 Image --
1984 2 22 00 -17.1 151.0 995 0 0 Image --
1984 2 22 06 -17.0 151.3 993 0 0 Image --
1984 2 22 12 -16.7 151.7 985 0 0 Image --
1984 2 22 18 -16.7 152.4 976 0 0 Image --
1984 2 23 00 -16.8 153.6 975 0 0 Image --
1984 2 23 06 -17.2 155.1 985 0 0 Image --
1984 2 23 12 -17.9 156.4 985 0 0 Image --
1984 2 23 18 -18.9 157.3 992 0 0 Image --
1984 2 24 00 -19.6 157.8 995 0 0 Image --
1984 2 24 06 -20.3 158.2 995 0 0 Image --
1984 2 24 12 -20.7 158.9 997 0 0 Image --
1984 2 24 18 -20.5 159.9 998 0 0 Image --
1984 2 25 00 -20.5 160.7 1002 0 0 Image --
1984 2 25 03 -20.5 160.8 1003 0 0 Image --
< Cyclone 198414 1984 Season Cyclone 198416 >

Help